sensor_id;sensor_type;location;lat;lon;timestamp;P1;durP1;ratioP1;P2;durP2;ratioP2
24206;SDS011;12351;52.284;9.160;2023-02-01T00:02:17;20.70;;;3.30;;
24206;SDS011;12351;52.284;9.160;2023-02-01T00:05:05;19.32;;;3.40;;
24206;SDS011;12351;52.284;9.160;2023-02-01T00:07:53;16.70;;;2.90;;
24206;SDS011;12351;52.284;9.160;2023-02-01T00:10:41;17.70;;;3.10;;
24206;SDS011;12351;52.284;9.160;2023-02-01T00:13:29;17.57;;;2.60;;
24206;SDS011;12351;52.284;9.160;2023-02-01T00:16:18;22.17;;;3.72;;
24206;SDS011;12351;52.284;9.160;2023-02-01T00:19:09;22.10;;;3.17;;
24206;SDS011;12351;52.284;9.160;2023-02-01T00:21:57;19.48;;;3.80;;
24206;SDS011;12351;52.284;9.160;2023-02-01T00:24:43;22.07;;;2.90;;
24206;SDS011;12351;52.284;9.160;2023-02-01T00:27:32;20.88;;;3.47;;
24206;SDS011;12351;52.284;9.160;2023-02-01T00:30:24;20.40;;;3.47;;
24206;SDS011;12351;52.284;9.160;2023-02-01T00:33:13;15.93;;;3.00;;
24206;SDS011;12351;52.284;9.160;2023-02-01T00:36:01;18.92;;;3.05;;
24206;SDS011;12351;52.284;9.160;2023-02-01T00:38:49;15.40;;;3.03;;
24206;SDS011;12351;52.284;9.160;2023-02-01T00:41:36;20.77;;;3.03;;
24206;SDS011;12351;52.284;9.160;2023-02-01T00:44:23;17.00;;;3.50;;
24206;SDS011;12351;52.284;9.160;2023-02-01T00:47:10;15.80;;;2.77;;
24206;SDS011;12351;52.284;9.160;2023-02-01T00:50:00;20.53;;;2.93;;
24206;SDS011;12351;52.284;9.160;2023-02-01T00:52:47;23.70;;;3.33;;
24206;SDS011;12351;52.284;9.160;2023-02-01T00:55:33;18.30;;;3.30;;
24206;SDS011;12351;52.284;9.160;2023-02-01T00:58:23;21.53;;;3.40;;
24206;SDS011;12351;52.284;9.160;2023-02-01T01:01:13;19.40;;;3.07;;
24206;SDS011;12351;52.284;9.160;2023-02-01T01:03:53;24.37;;;3.43;;
24206;SDS011;12351;52.284;9.160;2023-02-01T01:06:41;20.90;;;3.10;;
24206;SDS011;12351;52.284;9.160;2023-02-01T01:09:28;23.67;;;3.20;;
24206;SDS011;12351;52.284;9.160;2023-02-01T01:12:15;17.30;;;2.73;;
24206;SDS011;12351;52.284;9.160;2023-02-01T01:15:03;19.63;;;3.43;;
24206;SDS011;12351;52.284;9.160;2023-02-01T01:17:51;19.23;;;3.33;;
24206;SDS011;12351;52.284;9.160;2023-02-01T01:20:39;26.13;;;3.20;;
24206;SDS011;12351;52.284;9.160;2023-02-01T01:23:28;18.10;;;2.93;;
24206;SDS011;12351;52.284;9.160;2023-02-01T01:26:18;23.42;;;3.62;;
24206;SDS011;12351;52.284;9.160;2023-02-01T01:29:08;18.87;;;2.80;;
24206;SDS011;12351;52.284;9.160;2023-02-01T01:31:56;21.60;;;2.90;;
24206;SDS011;12351;52.284;9.160;2023-02-01T01:34:45;19.33;;;4.13;;
24206;SDS011;12351;52.284;9.160;2023-02-01T01:37:33;20.13;;;2.93;;
24206;SDS011;12351;52.284;9.160;2023-02-01T01:40:20;18.13;;;3.10;;
24206;SDS011;12351;52.284;9.160;2023-02-01T01:43:12;20.07;;;2.97;;
24206;SDS011;12351;52.284;9.160;2023-02-01T01:45:58;20.63;;;3.27;;
24206;SDS011;12351;52.284;9.160;2023-02-01T01:48:46;19.17;;;3.17;;
24206;SDS011;12351;52.284;9.160;2023-02-01T01:51:38;22.70;;;3.52;;
24206;SDS011;12351;52.284;9.160;2023-02-01T01:54:28;16.63;;;2.80;;
24206;SDS011;12351;52.284;9.160;2023-02-01T01:57:21;22.83;;;3.07;;
24206;SDS011;12351;52.284;9.160;2023-02-01T02:00:10;21.15;;;3.17;;
24206;SDS011;12351;52.284;9.160;2023-02-01T02:03:03;17.20;;;3.17;;
24206;SDS011;12351;52.284;9.160;2023-02-01T02:05:50;18.50;;;2.90;;
24206;SDS011;12351;52.284;9.160;2023-02-01T02:08:41;19.07;;;2.90;;
24206;SDS011;12351;52.284;9.160;2023-02-01T02:11:28;25.03;;;3.63;;
24206;SDS011;12351;52.284;9.160;2023-02-01T02:14:17;20.90;;;3.77;;
24206;SDS011;12351;52.284;9.160;2023-02-01T02:17:07;15.83;;;2.80;;
24206;SDS011;12351;52.284;9.160;2023-02-01T02:22:51;17.25;;;2.80;;
24206;SDS011;12351;52.284;9.160;2023-02-01T02:34:12;14.63;;;2.60;;
24206;SDS011;12351;52.284;9.160;2023-02-01T02:39:54;14.30;;;2.72;;
24206;SDS011;12351;52.284;9.160;2023-02-01T02:48:25;19.20;;;2.80;;
24206;SDS011;12351;52.284;9.160;2023-02-01T02:51:14;23.33;;;3.20;;
24206;SDS011;12351;52.284;9.160;2023-02-01T02:56:56;19.43;;;2.83;;
24206;SDS011;12351;52.284;9.160;2023-02-01T02:59:46;17.02;;;2.87;;
24206;SDS011;12351;52.284;9.160;2023-02-01T03:02:38;20.12;;;2.80;;
24206;SDS011;12351;52.284;9.160;2023-02-01T03:05:31;13.57;;;2.43;;
24206;SDS011;12351;52.284;9.160;2023-02-01T03:08:19;17.25;;;2.85;;
24206;SDS011;12351;52.284;9.160;2023-02-01T03:11:08;21.45;;;3.20;;
24206;SDS011;12351;52.284;9.160;2023-02-01T03:13:57;19.70;;;2.70;;
24206;SDS011;12351;52.284;9.160;2023-02-01T03:16:48;21.30;;;3.23;;
24206;SDS011;12351;52.284;9.160;2023-02-01T03:19:37;13.07;;;2.80;;
24206;SDS011;12351;52.284;9.160;2023-02-01T03:22:27;21.17;;;3.00;;
24206;SDS011;12351;52.284;9.160;2023-02-01T03:25:18;23.33;;;3.23;;
24206;SDS011;12351;52.284;9.160;2023-02-01T03:28:07;20.53;;;3.27;;
24206;SDS011;12351;52.284;9.160;2023-02-01T03:30:54;15.35;;;3.08;;
24206;SDS011;12351;52.284;9.160;2023-02-01T03:33:43;15.67;;;2.90;;
24206;SDS011;12351;52.284;9.160;2023-02-01T03:36:31;19.00;;;3.40;;
24206;SDS011;12351;52.284;9.160;2023-02-01T03:39:21;17.43;;;3.20;;
24206;SDS011;12351;52.284;9.160;2023-02-01T03:47:50;17.00;;;3.90;;
24206;SDS011;12351;52.284;9.160;2023-02-01T03:50:41;19.05;;;3.40;;
24206;SDS011;12351;52.284;9.160;2023-02-01T03:53:31;13.95;;;3.52;;
24206;SDS011;12351;52.284;9.160;2023-02-01T03:56:19;19.70;;;3.40;;
24206;SDS011;12351;52.284;9.160;2023-02-01T03:59:08;17.75;;;3.92;;
24206;SDS011;12351;52.284;9.160;2023-02-01T04:01:56;20.72;;;3.70;;
24206;SDS011;12351;52.284;9.160;2023-02-01T04:04:43;22.85;;;3.33;;
24206;SDS011;12351;52.284;9.160;2023-02-01T04:07:29;16.73;;;3.83;;
24206;SDS011;12351;52.284;9.160;2023-02-01T04:10:16;13.70;;;3.43;;
24206;SDS011;12351;52.284;9.160;2023-02-01T04:13:02;16.93;;;3.77;;
24206;SDS011;12351;52.284;9.160;2023-02-01T04:15:51;17.87;;;3.20;;
24206;SDS011;12351;52.284;9.160;2023-02-01T04:18:38;17.77;;;3.40;;
24206;SDS011;12351;52.284;9.160;2023-02-01T04:21:27;19.35;;;3.33;;
24206;SDS011;12351;52.284;9.160;2023-02-01T04:24:18;21.03;;;3.87;;
24206;SDS011;12351;52.284;9.160;2023-02-01T04:27:04;12.70;;;3.03;;
24206;SDS011;12351;52.284;9.160;2023-02-01T04:29:51;19.73;;;3.40;;
24206;SDS011;12351;52.284;9.160;2023-02-01T04:32:38;15.83;;;2.98;;
24206;SDS011;12351;52.284;9.160;2023-02-01T04:35:26;21.23;;;3.43;;
24206;SDS011;12351;52.284;9.160;2023-02-01T04:38:13;18.57;;;3.10;;
24206;SDS011;12351;52.284;9.160;2023-02-01T04:41:01;18.03;;;3.07;;
24206;SDS011;12351;52.284;9.160;2023-02-01T04:43:48;17.60;;;3.13;;
24206;SDS011;12351;52.284;9.160;2023-02-01T04:46:37;18.80;;;3.83;;
24206;SDS011;12351;52.284;9.160;2023-02-01T04:49:25;29.30;;;4.80;;
24206;SDS011;12351;52.284;9.160;2023-02-01T04:52:16;19.57;;;3.55;;
24206;SDS011;12351;52.284;9.160;2023-02-01T04:55:03;18.32;;;2.92;;
24206;SDS011;12351;52.284;9.160;2023-02-01T04:57:50;20.57;;;3.40;;
24206;SDS011;12351;52.284;9.160;2023-02-01T05:00:37;20.02;;;3.27;;
24206;SDS011;12351;52.284;9.160;2023-02-01T05:03:25;15.55;;;3.12;;
24206;SDS011;12351;52.284;9.160;2023-02-01T05:06:12;13.07;;;3.23;;
24206;SDS011;12351;52.284;9.160;2023-02-01T05:09:01;14.05;;;3.12;;
24206;SDS011;12351;52.284;9.160;2023-02-01T05:11:49;20.45;;;3.42;;
24206;SDS011;12351;52.284;9.160;2023-02-01T05:14:37;19.92;;;2.98;;
24206;SDS011;12351;52.284;9.160;2023-02-01T05:17:25;17.60;;;3.40;;
24206;SDS011;12351;52.284;9.160;2023-02-01T05:20:13;16.07;;;2.85;;
24206;SDS011;12351;52.284;9.160;2023-02-01T05:23:02;16.97;;;2.60;;
24206;SDS011;12351;52.284;9.160;2023-02-01T05:25:49;20.37;;;4.00;;
24206;SDS011;12351;52.284;9.160;2023-02-01T05:28:36;17.80;;;2.97;;
24206;SDS011;12351;52.284;9.160;2023-02-01T05:31:25;18.15;;;3.40;;
24206;SDS011;12351;52.284;9.160;2023-02-01T05:34:13;18.03;;;2.97;;
24206;SDS011;12351;52.284;9.160;2023-02-01T05:37:01;16.50;;;3.20;;
24206;SDS011;12351;52.284;9.160;2023-02-01T05:39:50;21.27;;;3.27;;
24206;SDS011;12351;52.284;9.160;2023-02-01T05:42:40;12.93;;;2.93;;
24206;SDS011;12351;52.284;9.160;2023-02-01T05:45:29;15.13;;;2.77;;
24206;SDS011;12351;52.284;9.160;2023-02-01T05:48:15;18.87;;;3.40;;
24206;SDS011;12351;52.284;9.160;2023-02-01T05:51:04;21.65;;;3.10;;
24206;SDS011;12351;52.284;9.160;2023-02-01T05:53:51;17.10;;;2.60;;
24206;SDS011;12351;52.284;9.160;2023-02-01T05:56:37;15.17;;;2.97;;
24206;SDS011;12351;52.284;9.160;2023-02-01T05:59:26;14.43;;;2.95;;
24206;SDS011;12351;52.284;9.160;2023-02-01T06:02:15;18.07;;;2.90;;
24206;SDS011;12351;52.284;9.160;2023-02-01T06:05:02;17.98;;;2.90;;
24206;SDS011;12351;52.284;9.160;2023-02-01T06:07:51;13.20;;;2.60;;
24206;SDS011;12351;52.284;9.160;2023-02-01T06:10:39;14.67;;;2.70;;
24206;SDS011;12351;52.284;9.160;2023-02-01T06:13:28;16.43;;;3.10;;
24206;SDS011;12351;52.284;9.160;2023-02-01T06:16:17;14.53;;;3.73;;
24206;SDS011;12351;52.284;9.160;2023-02-01T06:19:06;16.87;;;3.60;;
24206;SDS011;12351;52.284;9.160;2023-02-01T06:21:53;12.93;;;2.73;;
24206;SDS011;12351;52.284;9.160;2023-02-01T06:24:41;14.40;;;2.77;;
24206;SDS011;12351;52.284;9.160;2023-02-01T06:27:32;16.33;;;3.30;;
24206;SDS011;12351;52.284;9.160;2023-02-01T06:30:20;17.60;;;3.57;;
24206;SDS011;12351;52.284;9.160;2023-02-01T06:33:06;13.23;;;3.23;;
24206;SDS011;12351;52.284;9.160;2023-02-01T06:38:43;20.07;;;3.93;;
24206;SDS011;12351;52.284;9.160;2023-02-01T06:41:29;12.33;;;3.00;;
24206;SDS011;12351;52.284;9.160;2023-02-01T06:44:17;16.67;;;3.27;;
24206;SDS011;12351;52.284;9.160;2023-02-01T06:47:05;15.30;;;3.53;;
24206;SDS011;12351;52.284;9.160;2023-02-01T06:49:54;17.17;;;3.40;;
24206;SDS011;12351;52.284;9.160;2023-02-01T06:52:39;14.90;;;2.90;;
24206;SDS011;12351;52.284;9.160;2023-02-01T06:55:26;17.93;;;3.83;;
24206;SDS011;12351;52.284;9.160;2023-02-01T06:58:13;21.73;;;3.50;;
24206;SDS011;12351;52.284;9.160;2023-02-01T07:03:50;15.70;;;2.87;;
24206;SDS011;12351;52.284;9.160;2023-02-01T07:06:36;25.20;;;3.30;;
24206;SDS011;12351;52.284;9.160;2023-02-01T07:09:24;20.53;;;3.00;;
24206;SDS011;12351;52.284;9.160;2023-02-01T07:12:10;22.33;;;3.40;;
24206;SDS011;12351;52.284;9.160;2023-02-01T07:14:58;17.30;;;3.10;;
24206;SDS011;12351;52.284;9.160;2023-02-01T07:17:46;20.00;;;3.67;;
24206;SDS011;12351;52.284;9.160;2023-02-01T07:20:33;15.97;;;2.90;;
24206;SDS011;12351;52.284;9.160;2023-02-01T07:23:23;20.13;;;3.50;;
24206;SDS011;12351;52.284;9.160;2023-02-01T07:26:11;19.93;;;3.17;;
24206;SDS011;12351;52.284;9.160;2023-02-01T09:34:26;17.87;;;2.77;;
24206;SDS011;12351;52.284;9.160;2023-02-01T09:37:15;13.13;;;2.83;;
24206;SDS011;12351;52.284;9.160;2023-02-01T09:40:05;16.93;;;3.00;;
24206;SDS011;12351;52.284;9.160;2023-02-01T09:48:38;13.43;;;2.97;;
24206;SDS011;12351;52.284;9.160;2023-02-01T09:51:29;16.07;;;3.10;;
24206;SDS011;12351;52.284;9.160;2023-02-01T09:54:18;11.87;;;2.53;;
24206;SDS011;12351;52.284;9.160;2023-02-01T09:57:08;16.45;;;2.65;;
24206;SDS011;12351;52.284;9.160;2023-02-01T10:00:00;16.03;;;2.33;;
24206;SDS011;12351;52.284;9.160;2023-02-01T10:02:49;19.70;;;3.08;;
24206;SDS011;12351;52.284;9.160;2023-02-01T10:08:32;17.60;;;3.17;;
24206;SDS011;12351;52.284;9.160;2023-02-01T10:14:04;16.20;;;2.60;;
24206;SDS011;12351;52.284;9.160;2023-02-01T10:16:55;13.98;;;3.10;;
24206;SDS011;12351;52.284;9.160;2023-02-01T10:28:06;14.15;;;2.77;;
24206;SDS011;12351;52.284;9.160;2023-02-01T10:30:57;19.35;;;3.30;;
24206;SDS011;12351;52.284;9.160;2023-02-01T10:33:50;13.32;;;2.58;;
24206;SDS011;12351;52.284;9.160;2023-02-01T10:36:41;14.07;;;3.05;;
24206;SDS011;12351;52.284;9.160;2023-02-01T10:39:32;13.35;;;2.12;;
24206;SDS011;12351;52.284;9.160;2023-02-01T10:42:24;14.43;;;2.58;;
24206;SDS011;12351;52.284;9.160;2023-02-01T10:45:14;17.05;;;2.72;;
24206;SDS011;12351;52.284;9.160;2023-02-01T10:48:04;13.48;;;2.83;;
24206;SDS011;12351;52.284;9.160;2023-02-01T10:56:37;12.68;;;2.25;;
24206;SDS011;12351;52.284;9.160;2023-02-01T10:59:28;11.10;;;2.52;;
24206;SDS011;12351;52.284;9.160;2023-02-01T11:05:02;11.03;;;3.17;;
24206;SDS011;12351;52.284;9.160;2023-02-01T11:07:54;15.25;;;2.75;;
24206;SDS011;12351;52.284;9.160;2023-02-01T11:10:44;11.90;;;2.60;;
24206;SDS011;12351;52.284;9.160;2023-02-01T11:13:33;11.60;;;2.58;;
24206;SDS011;12351;52.284;9.160;2023-02-01T11:16:29;13.50;;;2.87;;
24206;SDS011;12351;52.284;9.160;2023-02-01T11:19:17;13.70;;;2.70;;
24206;SDS011;12351;52.284;9.160;2023-02-01T11:22:07;9.73;;;2.50;;
24206;SDS011;12351;52.284;9.160;2023-02-01T11:25:00;13.53;;;3.05;;
24206;SDS011;12351;52.284;9.160;2023-02-01T11:27:51;16.05;;;3.10;;
24206;SDS011;12351;52.284;9.160;2023-02-01T11:30:41;15.40;;;3.12;;
24206;SDS011;12351;52.284;9.160;2023-02-01T11:33:32;16.87;;;3.27;;
24206;SDS011;12351;52.284;9.160;2023-02-01T11:36:23;9.75;;;2.70;;
24206;SDS011;12351;52.284;9.160;2023-02-01T11:42:05;11.77;;;2.70;;
24206;SDS011;12351;52.284;9.160;2023-02-01T11:47:48;9.25;;;2.65;;
24206;SDS011;12351;52.284;9.160;2023-02-01T11:50:38;15.05;;;3.20;;
24206;SDS011;12351;52.284;9.160;2023-02-01T12:10:43;15.98;;;2.87;;
24206;SDS011;12351;52.284;9.160;2023-02-01T12:13:33;13.70;;;3.02;;
24206;SDS011;12351;52.284;9.160;2023-02-01T12:16:24;13.32;;;2.77;;
24206;SDS011;12351;52.284;9.160;2023-02-01T12:50:27;8.80;;;2.17;;
24206;SDS011;12351;52.284;9.160;2023-02-01T12:55:59;12.00;;;1.70;;
24206;SDS011;12351;52.284;9.160;2023-02-01T12:58:49;9.18;;;2.75;;
24206;SDS011;12351;52.284;9.160;2023-02-01T13:01:41;8.85;;;2.30;;
24206;SDS011;12351;52.284;9.160;2023-02-01T13:04:33;8.50;;;1.95;;
24206;SDS011;12351;52.284;9.160;2023-02-01T13:07:22;7.67;;;1.90;;
24206;SDS011;12351;52.284;9.160;2023-02-01T13:10:12;10.63;;;2.08;;
24206;SDS011;12351;52.284;9.160;2023-02-01T13:13:04;7.17;;;2.00;;
24206;SDS011;12351;52.284;9.160;2023-02-01T13:18:43;5.58;;;1.90;;
24206;SDS011;12351;52.284;9.160;2023-02-01T13:21:33;10.40;;;1.97;;
24206;SDS011;12351;52.284;9.160;2023-02-01T13:24:26;7.73;;;2.03;;
24206;SDS011;12351;52.284;9.160;2023-02-01T13:27:15;5.90;;;2.12;;
24206;SDS011;12351;52.284;9.160;2023-02-01T13:30:10;8.30;;;2.35;;
24206;SDS011;12351;52.284;9.160;2023-02-01T13:50:00;9.85;;;2.25;;
24206;SDS011;12351;52.284;9.160;2023-02-01T13:55:41;1.77;;;0.50;;
24206;SDS011;12351;52.284;9.160;2023-02-01T13:58:33;2.00;;;0.50;;
24206;SDS011;12351;52.284;9.160;2023-02-01T14:07:15;0.67;;;0.20;;
24206;SDS011;12351;52.284;9.160;2023-02-01T14:09:56;1.10;;;0.30;;
24206;SDS011;12351;52.284;9.160;2023-02-01T14:12:48;0.23;;;0.10;;
24206;SDS011;12351;52.284;9.160;2023-02-01T14:15:36;0.80;;;0.30;;
24206;SDS011;12351;52.284;9.160;2023-02-01T14:27:00;0.50;;;0.50;;
24206;SDS011;12351;52.284;9.160;2023-02-01T14:32:40;0.73;;;0.60;;
24206;SDS011;12351;52.284;9.160;2023-02-01T14:35:29;1.73;;;0.40;;
24206;SDS011;12351;52.284;9.160;2023-02-01T14:38:19;2.70;;;0.80;;
24206;SDS011;12351;52.284;9.160;2023-02-01T14:41:10;0.70;;;0.40;;
24206;SDS011;12351;52.284;9.160;2023-02-01T14:49:47;3.37;;;0.60;;
24206;SDS011;12351;52.284;9.160;2023-02-01T14:52:33;3.00;;;0.60;;
24206;SDS011;12351;52.284;9.160;2023-02-01T15:01:05;2.00;;;0.63;;
24206;SDS011;12351;52.284;9.160;2023-02-01T15:09:36;3.35;;;1.30;;
24206;SDS011;12351;52.284;9.160;2023-02-01T15:12:28;3.63;;;1.17;;
24206;SDS011;12351;52.284;9.160;2023-02-01T15:15:18;3.20;;;1.13;;
24206;SDS011;12351;52.284;9.160;2023-02-01T15:18:14;3.67;;;1.20;;
24206;SDS011;12351;52.284;9.160;2023-02-01T15:21:00;4.30;;;1.80;;
24206;SDS011;12351;52.284;9.160;2023-02-01T15:24:03;4.22;;;1.72;;
24206;SDS011;12351;52.284;9.160;2023-02-01T15:26:41;3.10;;;1.53;;
24206;SDS011;12351;52.284;9.160;2023-02-01T15:29:29;8.17;;;1.97;;
24206;SDS011;12351;52.284;9.160;2023-02-01T15:35:42;9.70;;;1.83;;
24206;SDS011;12351;52.284;9.160;2023-02-01T15:46:38;4.42;;;1.60;;
24206;SDS011;12351;52.284;9.160;2023-02-01T15:49:28;5.97;;;1.30;;
24206;SDS011;12351;52.284;9.160;2023-02-01T15:58:05;9.60;;;1.20;;
24206;SDS011;12351;52.284;9.160;2023-02-01T16:00:55;5.03;;;1.00;;
24206;SDS011;12351;52.284;9.160;2023-02-01T16:03:46;7.20;;;1.25;;
24206;SDS011;12351;52.284;9.160;2023-02-01T16:06:36;6.90;;;0.90;;
24206;SDS011;12351;52.284;9.160;2023-02-01T16:15:07;6.63;;;1.47;;
24206;SDS011;12351;52.284;9.160;2023-02-01T16:17:57;4.87;;;1.20;;
24206;SDS011;12351;52.284;9.160;2023-02-01T16:20:47;9.20;;;1.53;;
24206;SDS011;12351;52.284;9.160;2023-02-01T16:23:37;6.03;;;1.17;;
24206;SDS011;12351;52.284;9.160;2023-02-01T16:26:26;5.20;;;1.10;;
24206;SDS011;12351;52.284;9.160;2023-02-01T16:29:16;9.50;;;1.30;;
24206;SDS011;12351;52.284;9.160;2023-02-01T16:32:08;11.70;;;1.83;;
24206;SDS011;12351;52.284;9.160;2023-02-01T16:34:58;9.97;;;1.90;;
24206;SDS011;12351;52.284;9.160;2023-02-01T16:37:47;5.57;;;1.97;;
24206;SDS011;12351;52.284;9.160;2023-02-01T16:40:36;10.73;;;1.57;;
24206;SDS011;12351;52.284;9.160;2023-02-01T16:43:24;15.10;;;2.17;;
24206;SDS011;12351;52.284;9.160;2023-02-01T16:46:16;13.97;;;1.80;;
24206;SDS011;12351;52.284;9.160;2023-02-01T16:49:07;11.37;;;1.90;;
24206;SDS011;12351;52.284;9.160;2023-02-01T16:51:57;7.87;;;1.93;;
24206;SDS011;12351;52.284;9.160;2023-02-01T16:54:48;13.60;;;2.60;;
24206;SDS011;12351;52.284;9.160;2023-02-01T16:57:35;12.70;;;2.40;;
24206;SDS011;12351;52.284;9.160;2023-02-01T17:00:24;15.77;;;2.90;;
24206;SDS011;12351;52.284;9.160;2023-02-01T17:03:14;14.23;;;2.90;;
24206;SDS011;12351;52.284;9.160;2023-02-01T17:06:06;12.63;;;2.00;;
24206;SDS011;12351;52.284;9.160;2023-02-01T17:08:55;14.83;;;2.53;;
24206;SDS011;12351;52.284;9.160;2023-02-01T17:11:48;14.90;;;3.10;;
24206;SDS011;12351;52.284;9.160;2023-02-01T17:14:38;18.50;;;3.10;;
24206;SDS011;12351;52.284;9.160;2023-02-01T17:17:32;14.10;;;4.33;;
24206;SDS011;12351;52.284;9.160;2023-02-01T17:20:24;15.60;;;2.90;;
24206;SDS011;12351;52.284;9.160;2023-02-01T17:23:13;14.50;;;2.62;;
24206;SDS011;12351;52.284;9.160;2023-02-01T17:26:05;18.33;;;2.93;;
24206;SDS011;12351;52.284;9.160;2023-02-01T17:28:54;14.73;;;2.90;;
24206;SDS011;12351;52.284;9.160;2023-02-01T17:31:47;16.40;;;3.17;;
24206;SDS011;12351;52.284;9.160;2023-02-01T17:34:38;14.57;;;3.00;;
24206;SDS011;12351;52.284;9.160;2023-02-01T17:37:29;11.80;;;2.33;;
24206;SDS011;12351;52.284;9.160;2023-02-01T17:40:18;16.93;;;2.30;;
24206;SDS011;12351;52.284;9.160;2023-02-01T17:43:12;17.97;;;2.60;;
24206;SDS011;12351;52.284;9.160;2023-02-01T17:45:59;21.07;;;2.83;;
24206;SDS011;12351;52.284;9.160;2023-02-01T17:48:48;15.37;;;2.47;;
24206;SDS011;12351;52.284;9.160;2023-02-01T17:51:37;16.03;;;2.80;;
24206;SDS011;12351;52.284;9.160;2023-02-01T17:54:27;15.07;;;3.03;;
24206;SDS011;12351;52.284;9.160;2023-02-01T17:57:19;13.08;;;2.50;;
24206;SDS011;12351;52.284;9.160;2023-02-01T18:00:12;18.10;;;2.77;;
24206;SDS011;12351;52.284;9.160;2023-02-01T18:03:04;15.45;;;2.70;;
24206;SDS011;12351;52.284;9.160;2023-02-01T18:05:54;16.93;;;2.10;;
24206;SDS011;12351;52.284;9.160;2023-02-01T18:08:44;20.30;;;2.97;;
24206;SDS011;12351;52.284;9.160;2023-02-01T18:11:36;21.83;;;2.83;;
24206;SDS011;12351;52.284;9.160;2023-02-01T18:14:26;12.83;;;2.53;;
24206;SDS011;12351;52.284;9.160;2023-02-01T18:17:18;14.93;;;3.00;;
24206;SDS011;12351;52.284;9.160;2023-02-01T18:20:06;17.63;;;2.40;;
24206;SDS011;12351;52.284;9.160;2023-02-01T18:22:58;15.00;;;2.60;;
24206;SDS011;12351;52.284;9.160;2023-02-01T18:25:48;15.47;;;2.20;;
24206;SDS011;12351;52.284;9.160;2023-02-01T18:28:39;14.70;;;2.53;;
24206;SDS011;12351;52.284;9.160;2023-02-01T18:31:29;15.40;;;2.70;;
24206;SDS011;12351;52.284;9.160;2023-02-01T18:34:20;23.90;;;2.47;;
24206;SDS011;12351;52.284;9.160;2023-02-01T18:37:09;11.07;;;2.07;;
24206;SDS011;12351;52.284;9.160;2023-02-01T18:40:01;15.17;;;2.67;;
24206;SDS011;12351;52.284;9.160;2023-02-01T18:42:52;13.40;;;2.17;;
24206;SDS011;12351;52.284;9.160;2023-02-01T18:45:44;12.83;;;2.43;;
24206;SDS011;12351;52.284;9.160;2023-02-01T18:48:34;16.10;;;2.33;;
24206;SDS011;12351;52.284;9.160;2023-02-01T18:51:25;14.00;;;2.50;;
24206;SDS011;12351;52.284;9.160;2023-02-01T18:54:14;23.13;;;2.67;;
24206;SDS011;12351;52.284;9.160;2023-02-01T18:57:02;16.70;;;2.67;;
24206;SDS011;12351;52.284;9.160;2023-02-01T18:59:53;15.00;;;2.43;;
24206;SDS011;12351;52.284;9.160;2023-02-01T19:02:41;15.47;;;2.63;;
24206;SDS011;12351;52.284;9.160;2023-02-01T19:05:33;18.30;;;2.37;;
24206;SDS011;12351;52.284;9.160;2023-02-01T19:08:24;17.87;;;2.50;;
24206;SDS011;12351;52.284;9.160;2023-02-01T19:11:12;10.47;;;2.10;;
24206;SDS011;12351;52.284;9.160;2023-02-01T19:14:03;10.27;;;1.83;;
24206;SDS011;12351;52.284;9.160;2023-02-01T19:16:54;10.93;;;2.40;;
24206;SDS011;12351;52.284;9.160;2023-02-01T19:19:43;14.17;;;2.60;;
24206;SDS011;12351;52.284;9.160;2023-02-01T19:22:35;18.52;;;2.62;;
24206;SDS011;12351;52.284;9.160;2023-02-01T19:25:26;18.07;;;3.53;;
24206;SDS011;12351;52.284;9.160;2023-02-01T19:28:16;11.85;;;2.70;;
24206;SDS011;12351;52.284;9.160;2023-02-01T19:31:06;13.20;;;2.80;;
24206;SDS011;12351;52.284;9.160;2023-02-01T19:33:59;15.15;;;2.90;;
24206;SDS011;12351;52.284;9.160;2023-02-01T19:36:48;11.73;;;2.30;;
24206;SDS011;12351;52.284;9.160;2023-02-01T19:39:37;11.00;;;2.70;;
24206;SDS011;12351;52.284;9.160;2023-02-01T19:42:31;19.25;;;3.00;;
24206;SDS011;12351;52.284;9.160;2023-02-01T19:45:21;17.70;;;2.40;;
24206;SDS011;12351;52.284;9.160;2023-02-01T19:48:11;12.15;;;2.30;;
24206;SDS011;12351;52.284;9.160;2023-02-01T19:51:00;21.75;;;2.50;;
24206;SDS011;12351;52.284;9.160;2023-02-01T19:53:51;16.50;;;2.80;;
24206;SDS011;12351;52.284;9.160;2023-02-01T19:56:43;12.63;;;2.30;;
24206;SDS011;12351;52.284;9.160;2023-02-01T19:59:31;15.43;;;2.77;;
24206;SDS011;12351;52.284;9.160;2023-02-01T20:02:23;17.60;;;2.57;;
24206;SDS011;12351;52.284;9.160;2023-02-01T20:05:13;19.60;;;2.53;;
24206;SDS011;12351;52.284;9.160;2023-02-01T20:08:02;18.13;;;2.63;;
24206;SDS011;12351;52.284;9.160;2023-02-01T20:10:51;14.07;;;2.50;;
24206;SDS011;12351;52.284;9.160;2023-02-01T20:13:44;15.83;;;2.90;;
24206;SDS011;12351;52.284;9.160;2023-02-01T20:16:31;18.87;;;2.60;;
24206;SDS011;12351;52.284;9.160;2023-02-01T20:19:21;17.87;;;2.60;;
24206;SDS011;12351;52.284;9.160;2023-02-01T20:22:10;13.17;;;2.70;;
24206;SDS011;12351;52.284;9.160;2023-02-01T20:25:01;14.00;;;2.40;;
24206;SDS011;12351;52.284;9.160;2023-02-01T20:27:51;17.67;;;2.50;;
24206;SDS011;12351;52.284;9.160;2023-02-01T20:30:43;13.63;;;2.60;;
24206;SDS011;12351;52.284;9.160;2023-02-01T20:33:32;12.40;;;3.17;;
24206;SDS011;12351;52.284;9.160;2023-02-01T20:36:23;20.33;;;3.00;;
24206;SDS011;12351;52.284;9.160;2023-02-01T20:39:11;19.67;;;2.80;;
24206;SDS011;12351;52.284;9.160;2023-02-01T20:42:03;15.37;;;2.87;;
24206;SDS011;12351;52.284;9.160;2023-02-01T20:44:51;21.07;;;3.30;;
24206;SDS011;12351;52.284;9.160;2023-02-01T20:47:40;14.67;;;2.60;;
24206;SDS011;12351;52.284;9.160;2023-02-01T20:50:31;22.47;;;3.00;;
24206;SDS011;12351;52.284;9.160;2023-02-01T20:53:23;15.17;;;2.80;;
24206;SDS011;12351;52.284;9.160;2023-02-01T20:56:12;16.73;;;2.50;;
24206;SDS011;12351;52.284;9.160;2023-02-01T20:59:03;13.33;;;2.87;;
24206;SDS011;12351;52.284;9.160;2023-02-01T21:01:52;13.63;;;2.37;;
24206;SDS011;12351;52.284;9.160;2023-02-01T21:04:43;19.80;;;2.55;;
24206;SDS011;12351;52.284;9.160;2023-02-01T21:07:32;20.68;;;2.65;;
24206;SDS011;12351;52.284;9.160;2023-02-01T21:10:22;24.45;;;3.87;;
24206;SDS011;12351;52.284;9.160;2023-02-01T21:13:11;16.20;;;2.60;;
24206;SDS011;12351;52.284;9.160;2023-02-01T21:16:01;22.55;;;3.08;;
24206;SDS011;12351;52.284;9.160;2023-02-01T21:18:51;18.95;;;2.72;;
24206;SDS011;12351;52.284;9.160;2023-02-01T21:21:42;13.53;;;2.47;;
24206;SDS011;12351;52.284;9.160;2023-02-01T21:24:33;23.65;;;2.70;;
24206;SDS011;12351;52.284;9.160;2023-02-01T21:27:30;13.35;;;2.12;;
24206;SDS011;12351;52.284;9.160;2023-02-01T21:30:19;25.08;;;2.83;;
24206;SDS011;12351;52.284;9.160;2023-02-01T21:33:10;15.13;;;3.10;;
24206;SDS011;12351;52.284;9.160;2023-02-01T21:36:01;19.77;;;2.43;;
24206;SDS011;12351;52.284;9.160;2023-02-01T21:38:51;15.10;;;2.87;;
24206;SDS011;12351;52.284;9.160;2023-02-01T21:41:45;16.12;;;2.30;;
24206;SDS011;12351;52.284;9.160;2023-02-01T21:44:35;15.27;;;2.87;;
24206;SDS011;12351;52.284;9.160;2023-02-01T21:47:23;16.55;;;2.77;;
24206;SDS011;12351;52.284;9.160;2023-02-01T21:50:14;22.65;;;2.87;;
24206;SDS011;12351;52.284;9.160;2023-02-01T21:53:04;16.42;;;2.55;;
24206;SDS011;12351;52.284;9.160;2023-02-01T21:55:57;14.45;;;2.85;;
24206;SDS011;12351;52.284;9.160;2023-02-01T21:58:50;19.27;;;2.77;;
24206;SDS011;12351;52.284;9.160;2023-02-01T22:01:43;18.30;;;2.80;;
24206;SDS011;12351;52.284;9.160;2023-02-01T22:04:33;17.50;;;2.98;;
24206;SDS011;12351;52.284;9.160;2023-02-01T22:07:20;24.32;;;3.42;;
24206;SDS011;12351;52.284;9.160;2023-02-01T22:10:11;21.30;;;2.87;;
24206;SDS011;12351;52.284;9.160;2023-02-01T22:13:03;19.80;;;3.00;;